METAR Data
IDs: Format: Raw Decoded Include TAF

Data at: 0210 UTC 25 Mar 2019

KMPZ 240815Z AUTO 17008KT 7SM RA SCT046 BKN065 OVC080 08/06 A3008 RMK AO2
KMPZ 240755Z AUTO 17008KT 10SM -RA SCT060 SCT065 OVC090 08/05 A3009 RMK AO2
KMPZ 240735Z AUTO 17009KT 10SM -RA SCT027 BKN070 OVC110 08/05 A3010 RMK AO2
KMPZ 240715Z AUTO 17008KT 10SM SCT065 BKN100 08/03 A3010 RMK AO2
KMPZ 240655Z AUTO 17008KT 10SM SCT065 OVC100 09/03 A3010 RMK AO2
KMPZ 240635Z AUTO 16010KT 10SM BKN065 BKN075 OVC100 08/03 A3011 RMK AO2
KMPZ 240615Z AUTO 14010KT 10SM BKN065 BKN080 OVC100 09/03 A3011 RMK AO2
KMPZ 240555Z AUTO 15011KT 10SM OVC065 09/03 A3011 RMK AO2
KMPZ 240535Z AUTO 15009KT 10SM OVC065 08/03 A3012 RMK AO2
KMPZ 240515Z AUTO 14009KT 10SM OVC075 08/02 A3012 RMK AO2
KMPZ 240455Z AUTO 14008KT 10SM OVC075 08/02 A3013 RMK AO2
KMPZ 240435Z AUTO 13006KT 10SM OVC075 08/02 A3013 RMK AO2
KMPZ 240415Z AUTO 13007KT 10SM OVC080 08/02 A3014 RMK AO2
KMPZ 240355Z AUTO 12007KT 10SM OVC080 08/03 A3014 RMK AO2
KMPZ 240335Z AUTO 14007KT 10SM SCT046 SCT050 OVC080 08/03 A3015 RMK AO2
KMPZ 240315Z AUTO 12008KT 10SM RA SCT047 BKN070 OVC080 08/03 A3014 RMK AO2
KMPZ 240255Z AUTO 12006KT 10SM SCT060 BKN070 OVC090 08/03 A3014 RMK AO2
KMPZ 240235Z AUTO 11005KT 10SM SCT070 OVC080 08/02 A3014 RMK AO2
KMPZ 240215Z AUTO 11005KT 10SM BKN080 OVC100 08/02 A3014 RMK AO2
KMPZ 240155Z AUTO 13005KT 10SM OVC100 08/02 A3014 RMK AO2
KMPZ 240135Z AUTO 12005KT 10SM OVC100 08/02 A3014 RMK AO2
KMPZ 240115Z AUTO 13006KT 10SM OVC110 08/02 A3014 RMK AO2
KMPZ 240055Z AUTO 14005KT 10SM OVC110 08/02 A3015 RMK AO2
KMPZ 240035Z AUTO 13004KT 10SM OVC110 10/01 A3015 RMK AO2
KMPZ 240015Z AUTO 15007KT 10SM SCT110 11/01 A3015 RMK AO2
KMPZ 232355Z AUTO 15009KT 10SM CLR 11/01 A3015 RMK AO2
KMPZ 232335Z AUTO 15009KT 10SM SCT100 12/01 A3015 RMK AO2
KMPZ 232315Z AUTO 15009KT 10SM BKN100 12/01 A3016 RMK AO2
KMPZ 232255Z AUTO 14010KT 10SM OVC100 12/01 A3015 RMK AO2
KMPZ 232235Z AUTO 14008KT 10SM OVC110 12/01 A3015 RMK AO2
KMPZ 232215Z AUTO 13008KT 10SM OVC110 12/01 A3016 RMK AO2
KMPZ 232155Z AUTO 14010KT 10SM OVC110 12/01 A3017 RMK AO2
KMPZ 232135Z AUTO 15012KT 10SM OVC120 12/01 A3018 RMK AO2
KMPZ 232115Z AUTO 15009KT 10SM BKN120 12/01 A3018 RMK AO2
KMPZ 232055Z AUTO 13011KT 10SM SCT120 13/00 A3018 RMK AO2
KMPZ 232035Z AUTO 14013G16KT 10SM SCT120 13/00 A3019 RMK AO2
KMPZ 232015Z AUTO 14010G15KT 10SM CLR 12/00 A3020 RMK AO2
KMPZ 231955Z AUTO 15009G14KT 10SM CLR 13/00 A3020 RMK AO2
KMPZ 231935Z AUTO 15011G16KT 10SM CLR 13/00 A3021 RMK AO2
KMPZ 231915Z AUTO 15010KT 10SM CLR 13/01 A3022 RMK AO2
KMPZ 231855Z AUTO 15011G15KT 10SM CLR 12/01 A3022 RMK AO2
KMPZ 231835Z AUTO 14011G14KT 10SM CLR 14/01 A3022 RMK AO2
KMPZ 231815Z AUTO 15011G17KT 10SM CLR 13/01 A3023 RMK AO2
KMPZ 231755Z AUTO 17013KT 10SM CLR 12/01 A3023 RMK AO2
KMPZ 231735Z AUTO 16012KT 10SM CLR 12/02 A3024 RMK AO2
KMPZ 231715Z AUTO 17013G17KT 10SM CLR 12/01 A3025 RMK AO2
KMPZ 231655Z AUTO 17011G16KT 10SM CLR 12/01 A3025 RMK AO2
KMPZ 231635Z AUTO 15012G17KT 10SM CLR 11/01 A3025 RMK AO2
KMPZ 231615Z AUTO 15011KT 10SM CLR 11/02 A3027 RMK AO2
KMPZ 231555Z AUTO 16009KT 10SM CLR 10/02 A3027 RMK AO2
KMPZ 231535Z AUTO 17010KT 10SM CLR 09/01 A3028 RMK AO2
KMPZ 231515Z AUTO 15009KT 10SM CLR 08/02 A3027 RMK AO2
KMPZ 231455Z AUTO 15007KT 10SM CLR 07/02 A3027 RMK AO2
KMPZ 231435Z AUTO 15009KT 10SM CLR 06/02 A3028 RMK AO2
KMPZ 231415Z AUTO 15009KT 10SM CLR 05/02 A3028 RMK AO2